Domov
logo

Sponzorovaný hosting od WebSupport.sk
Vlastný virtuálny server od 5,65 € od WebSupport.sk

Aktuálne počasie

LZIB - letisko Bratislava

Hodnoty namerané: 17.10.2018, 02:30 SELČ
Aktuálny čas: 17.10.2018, 02:44 SELČ
Aktualizované: pred 14 min.
Teplota: 10°C, pocitová teplota 9°C
Rosný bod: 6°C
Vietor: 7 km/h 20° (SSV)
Dohľadnosť: viac ako 10 km
Stav počasia: bez zrážok
Oblačnosť: jasno
Vlhkosť vzduchu: 76 %
Tlak vzduchu: 1021 hPa
METAR: LZIB 170030Z 02004KT CAVOK 10/06 Q1021 WS ALL RWY

LZKZ - letisko Košice

Hodnoty namerané: 17.10.2018, 02:30 SELČ
Aktuálny čas: 17.10.2018, 02:44 SELČ
Aktualizované: pred 14 min.
Teplota: 8°C, pocitová teplota 7°C
Rosný bod: 3°C
Vietor: 6 km/h 10° (S)
Dohľadnosť: viac ako 10 km
Stav počasia: bez zrážok
Oblačnosť: jasno
Vlhkosť vzduchu: 71 %
Tlak vzduchu: 1024 hPa
METAR: LZKZ 170030Z 01003KT CAVOK 08/03 Q1024

LZPP - letisko Piešťany

Hodnoty namerané: 17.10.2018, 02:30 SELČ
Aktuálny čas: 17.10.2018, 02:44 SELČ
Aktualizované: pred 14 min.
Teplota: 9°C, pocitová teplota 8°C
Rosný bod: 5°C
Vietor: 6 km/h 320° (SZ)
Dohľadnosť: viac ako 10 km
Stav počasia: bez zrážok
Oblačnosť: zamračené na 2926 m
Základňa oblačnosti: 2926 m
Vlhkosť vzduchu: 76 %
Tlak vzduchu: 1022 hPa
METAR: LZPP 170030Z AUTO 32003KT 9999 OVC096/// 09/05 Q1022

LZTT - letisko Poprad Tatry

Hodnoty namerané: 17.10.2018, 02:30 SELČ
Aktuálny čas: 17.10.2018, 02:44 SELČ
Aktualizované: pred 14 min.
Teplota: 5°C, pocitová teplota 4°C
Rosný bod: 3°C
Vietor: 6 km/h 310° (SZ) kolíše v rozsahu 270°-330° (Z-SSZ)
Dohľadnosť: viac ako 10 km
Stav počasia: bez zrážok
Oblačnosť: jasno
Vlhkosť vzduchu: 87 %
Tlak vzduchu: 1024 hPa
METAR: LZTT 170030Z 31003KT 270V330 CAVOK 05/03 Q1024

LZSL - letisko Sliač

Hodnoty namerané: 17.10.2018, 02:30 SELČ
Aktuálny čas: 17.10.2018, 02:44 SELČ
Aktualizované: pred 14 min.
Teplota: 8°C
Rosný bod: 5°C
Vietor: bezvetrie
Dohľadnosť: viac ako 10 km
Stav počasia: bez zrážok
Oblačnosť: jasno
Vlhkosť vzduchu: 82 %
Tlak vzduchu: 1024 hPa
METAR: LZSL 170030Z 00000KT CAVOK 08/05 Q1024

LZZI - letisko Žilina

Hodnoty namerané: 17.10.2018, 02:30 SELČ
Aktuálny čas: 17.10.2018, 02:44 SELČ
Aktualizované: pred 14 min.
Teplota: 7°C
Rosný bod: 5°C
Vietor: 4 km/h 80° (V)
Dohľadnosť: viac ako 10 km
Stav počasia: bez zrážok
Oblačnosť: jasno
Vlhkosť vzduchu: 87 %
Tlak vzduchu: 1023 hPa
METAR: LZZI 170030Z 08002KT CAVOK 07/05 Q1023

POZNÁMKY:

SEČ - stredoeurópsky čas (UTC+1hod.)

SELČ - stredoeurópsky letný čas (UTC+2hod.)

UTC - univerzálny svetový čas, GMT, ZULU

METAR - sú pravidelné kódované letecké meteorologické správy. Tie zostavujú a zverejňujú meteorologické stanice letísk v polhodinových/hodinových intervaloch. Na tejto stránke správy METAR zo slovenských letísk nájdete už v dekódovanej podobe.

hore